createdAt,value
2023-05-21T00:00:03.389Z,25.00
2023-05-21T00:01:03.376Z,25.00
2023-05-21T00:02:03.362Z,0.00
2023-05-21T00:03:03.412Z,0.00
2023-05-21T00:04:03.444Z,0.00
2023-05-21T00:05:03.324Z,0.00
2023-05-21T00:06:03.344Z,0.00
2023-05-21T00:07:03.301Z,0.00
2023-05-21T00:08:03.313Z,0.00
2023-05-21T00:09:03.305Z,0.00
2023-05-21T00:10:03.292Z,17.52
2023-05-21T00:11:03.285Z,25.00
2023-05-21T00:12:03.304Z,25.00
2023-05-21T00:13:03.277Z,25.87
2023-05-21T00:14:03.267Z,25.14
2023-05-21T00:15:03.271Z,24.96
2023-05-21T00:16:03.348Z,25.00
2023-05-21T00:17:03.263Z,25.00
2023-05-21T00:18:03.300Z,25.81
2023-05-21T00:19:03.265Z,26.48
2023-05-21T00:20:03.254Z,25.78
2023-05-21T00:21:03.279Z,25.29
2023-05-21T00:22:03.288Z,25.00
2023-05-21T00:23:03.268Z,25.59
2023-05-21T00:24:03.277Z,25.00
2023-05-21T00:25:03.285Z,25.64
2023-05-21T00:26:03.316Z,26.26
2023-05-21T00:27:03.318Z,27.67
2023-05-21T00:28:03.339Z,25.55
2023-05-21T00:29:03.298Z,25.00
2023-05-21T00:30:03.300Z,28.36
2023-05-21T00:31:03.269Z,26.20
2023-05-21T00:32:03.341Z,26.91
2023-05-21T00:33:03.475Z,25.00
2023-05-21T00:34:03.269Z,25.10
2023-05-21T00:35:03.272Z,27.10
2023-05-21T00:36:03.267Z,25.99
2023-05-21T00:37:03.257Z,25.75
2023-05-21T00:38:03.271Z,25.23
2023-05-21T00:39:03.257Z,26.40
2023-05-21T00:40:03.264Z,29.66
2023-05-21T00:41:03.259Z,25.72
2023-05-21T00:42:03.261Z,26.33
2023-05-21T00:43:03.250Z,27.31
2023-05-21T00:44:03.354Z,26.97
2023-05-21T00:45:03.255Z,27.14
2023-05-21T00:46:03.267Z,27.45
2023-05-21T00:47:03.246Z,25.53
2023-05-21T00:48:03.285Z,27.15
2023-05-21T00:49:03.246Z,26.46
2023-05-21T00:50:03.249Z,27.67
2023-05-21T00:51:03.255Z,25.97
2023-05-21T00:52:03.252Z,26.77
2023-05-21T00:53:03.249Z,27.43
2023-05-21T00:54:03.247Z,25.73
2023-05-21T00:55:03.246Z,28.01
2023-05-21T00:56:03.252Z,27.53
2023-05-21T00:57:03.234Z,26.96
2023-05-21T00:58:03.239Z,26.92
2023-05-21T00:59:03.243Z,25.88
2023-05-21T01:00:03.278Z,27.01
2023-05-21T01:01:03.253Z,27.23
2023-05-21T01:02:03.287Z,26.77
2023-05-21T01:03:03.378Z,27.21
2023-05-21T01:04:03.222Z,26.76
2023-05-21T01:05:03.238Z,28.21
2023-05-21T01:06:03.227Z,27.11
2023-05-21T01:07:03.214Z,26.79
2023-05-21T01:08:03.217Z,25.96
2023-05-21T01:09:04.990Z,25.80
2023-05-21T01:10:03.212Z,28.09
2023-05-21T01:11:03.192Z,30.31
2023-05-21T01:12:03.181Z,28.03
2023-05-21T01:13:03.800Z,27.66
2023-05-21T01:14:03.157Z,30.18
2023-05-21T01:15:03.147Z,28.43
2023-05-21T01:16:03.200Z,27.25
2023-05-21T01:17:03.188Z,27.97
2023-05-21T01:18:03.217Z,25.00
2023-05-21T01:19:03.152Z,26.72
2023-05-21T01:20:03.097Z,28.40
2023-05-21T01:21:03.102Z,26.30
2023-05-21T01:22:03.092Z,28.21
2023-05-21T01:23:03.070Z,26.95
2023-05-21T01:24:03.112Z,27.18
2023-05-21T01:25:03.129Z,25.71
2023-05-21T01:26:03.062Z,29.41
2023-05-21T01:27:03.102Z,26.77
2023-05-21T01:28:03.056Z,25.35
2023-05-21T01:29:03.042Z,28.54
2023-05-21T01:30:03.035Z,28.87
2023-05-21T01:31:03.042Z,28.85
2023-05-21T01:32:03.090Z,28.98
2023-05-21T01:33:03.148Z,29.35
2023-05-21T01:34:03.110Z,29.22
2023-05-21T01:35:03.006Z,26.98
2023-05-21T01:36:03.009Z,27.06
2023-05-21T01:37:02.991Z,27.30
2023-05-21T01:38:02.982Z,26.45
2023-05-21T01:39:03.001Z,27.34
2023-05-21T01:40:02.982Z,29.03
2023-05-21T01:41:02.963Z,27.22
2023-05-21T01:42:02.983Z,27.52
2023-05-21T01:43:02.970Z,27.62
2023-05-21T01:44:02.936Z,27.04
2023-05-21T01:45:02.932Z,25.19
2023-05-21T01:46:02.987Z,26.94
2023-05-21T01:47:02.919Z,26.12
2023-05-21T01:48:02.951Z,27.45
2023-05-21T01:49:02.902Z,27.51
2023-05-21T01:50:02.901Z,28.08
2023-05-21T01:51:02.891Z,26.05
2023-05-21T01:52:02.870Z,28.33
2023-05-21T01:53:02.861Z,30.06
2023-05-21T01:54:02.846Z,29.08
2023-05-21T01:55:02.853Z,27.34
2023-05-21T01:56:02.877Z,30.02
2023-05-21T01:57:02.814Z,28.94
2023-05-21T01:58:02.832Z,29.85
2023-05-21T01:59:02.792Z,29.27
2023-05-21T02:00:02.780Z,29.23
2023-05-21T02:01:02.798Z,26.93
2023-05-21T02:02:02.796Z,25.00
2023-05-21T02:03:02.948Z,31.29
2023-05-21T02:04:02.905Z,25.59
2023-05-21T02:05:02.730Z,29.02
2023-05-21T02:06:02.723Z,27.65
2023-05-21T02:07:02.718Z,28.23
2023-05-21T02:08:02.710Z,25.88
2023-05-21T02:09:02.711Z,29.87
2023-05-21T02:10:02.688Z,26.80
2023-05-21T02:11:02.698Z,26.45
2023-05-21T02:12:02.694Z,27.72
2023-05-21T02:13:02.676Z,26.18
2023-05-21T02:14:02.658Z,28.42
2023-05-21T02:15:02.664Z,28.59
2023-05-21T02:16:02.712Z,28.23
2023-05-21T02:17:02.644Z,26.91
2023-05-21T02:18:02.726Z,28.05
2023-05-21T02:19:02.646Z,26.09
2023-05-21T02:20:02.636Z,28.07
2023-05-21T02:21:02.611Z,27.17
2023-05-21T02:22:02.598Z,26.29
2023-05-21T02:23:02.596Z,28.06
2023-05-21T02:24:02.585Z,27.30
2023-05-21T02:25:02.581Z,28.42
2023-05-21T02:26:02.579Z,27.46
2023-05-21T02:27:02.571Z,26.88
2023-05-21T02:28:02.582Z,27.08
2023-05-21T02:29:02.565Z,26.49
2023-05-21T02:30:02.571Z,26.78
2023-05-21T02:31:02.553Z,27.99
2023-05-21T02:32:02.569Z,28.67
2023-05-21T02:33:02.576Z,26.31
2023-05-21T02:34:02.572Z,28.92
2023-05-21T02:35:02.547Z,29.35
2023-05-21T02:36:02.580Z,29.69
2023-05-21T02:37:02.549Z,27.96
2023-05-21T02:38:02.531Z,29.04
2023-05-21T02:39:02.519Z,28.44
2023-05-21T02:40:02.524Z,28.63
2023-05-21T02:41:02.506Z,28.39
2023-05-21T02:42:02.501Z,27.37
2023-05-21T02:43:02.502Z,27.60
2023-05-21T02:44:02.501Z,28.59
2023-05-21T02:45:02.506Z,26.87
2023-05-21T02:46:02.559Z,27.05
2023-05-21T02:47:02.532Z,27.62
2023-05-21T02:48:02.549Z,27.83
2023-05-21T02:49:02.513Z,28.38
2023-05-21T02:50:02.517Z,26.30
2023-05-21T02:51:02.526Z,28.17
2023-05-21T02:52:02.548Z,27.04
2023-05-21T02:53:02.530Z,27.54
2023-05-21T02:54:02.530Z,28.02
2023-05-21T02:55:02.535Z,26.63
2023-05-21T02:56:02.535Z,26.68
2023-05-21T02:57:02.530Z,25.00
2023-05-21T02:58:02.536Z,29.43
2023-05-21T02:59:02.590Z,25.53
2023-05-21T03:00:02.537Z,26.82
2023-05-21T03:01:02.559Z,28.78
2023-05-21T03:02:02.542Z,29.00
2023-05-21T03:03:02.647Z,26.09
2023-05-21T03:04:02.523Z,27.15
2023-05-21T03:05:02.515Z,27.53
2023-05-21T03:06:02.517Z,29.21
2023-05-21T03:07:02.513Z,28.06
2023-05-21T03:08:02.552Z,25.25
2023-05-21T03:09:02.533Z,28.00
2023-05-21T03:10:02.535Z,29.80
2023-05-21T03:11:02.535Z,29.44
2023-05-21T03:12:02.541Z,28.64
2023-05-21T03:13:02.567Z,29.80
2023-05-21T03:14:02.548Z,28.96
2023-05-21T03:15:02.552Z,30.43
2023-05-21T03:16:02.546Z,28.11
2023-05-21T03:17:02.634Z,28.22
2023-05-21T03:18:02.564Z,27.75
2023-05-21T03:19:02.614Z,29.77
2023-05-21T03:20:02.562Z,30.52
2023-05-21T03:21:02.565Z,29.92
2023-05-21T03:22:02.559Z,28.98
2023-05-21T03:23:02.557Z,29.26
2023-05-21T03:24:02.580Z,30.61
2023-05-21T03:25:02.560Z,28.34
2023-05-21T03:26:02.558Z,27.08
2023-05-21T03:27:02.566Z,31.01
2023-05-21T03:28:02.558Z,29.05
2023-05-21T03:29:02.558Z,29.06
2023-05-21T03:30:03.087Z,30.18
2023-05-21T03:31:02.549Z,29.79
2023-05-21T03:32:02.612Z,27.84
2023-05-21T03:33:02.605Z,31.37
2023-05-21T03:34:02.558Z,30.48
2023-05-21T03:35:02.557Z,29.77
2023-05-21T03:36:02.555Z,28.67
2023-05-21T03:37:02.556Z,28.69
2023-05-21T03:38:02.557Z,30.15
2023-05-21T03:39:02.547Z,30.16
2023-05-21T03:40:02.698Z,28.75
2023-05-21T03:41:02.557Z,28.35
2023-05-21T03:42:02.581Z,29.01
2023-05-21T03:43:02.562Z,28.06
2023-05-21T03:44:02.573Z,27.92
2023-05-21T03:45:02.574Z,27.46
2023-05-21T03:46:02.612Z,28.54
2023-05-21T03:47:02.579Z,28.51
2023-05-21T03:48:02.629Z,29.81
2023-05-21T03:49:02.587Z,27.75
2023-05-21T03:50:02.585Z,27.89
2023-05-21T03:51:02.583Z,28.91
2023-05-21T03:52:02.590Z,27.68
2023-05-21T03:53:02.589Z,29.44
2023-05-21T03:54:02.595Z,28.36
2023-05-21T03:55:02.593Z,29.89
2023-05-21T03:56:02.613Z,30.48
2023-05-21T03:57:02.611Z,28.70
2023-05-21T03:58:02.615Z,28.26
2023-05-21T03:59:02.580Z,30.06
2023-05-21T04:00:02.604Z,28.38
2023-05-21T04:01:02.582Z,30.35
2023-05-21T04:02:02.657Z,27.91
2023-05-21T04:03:02.688Z,28.40
2023-05-21T04:04:02.767Z,27.63
2023-05-21T04:05:02.594Z,26.86
2023-05-21T04:06:02.599Z,28.61
2023-05-21T04:07:02.651Z,28.41
2023-05-21T04:08:02.596Z,26.93
2023-05-21T04:09:02.589Z,27.26
2023-05-21T04:10:02.598Z,28.36
2023-05-21T04:11:02.604Z,28.99
2023-05-21T04:12:02.633Z,28.97
2023-05-21T04:13:02.599Z,29.15
2023-05-21T04:14:02.597Z,27.44
2023-05-21T04:15:02.611Z,28.64
2023-05-21T04:16:02.635Z,28.19
2023-05-21T04:17:02.668Z,29.54
2023-05-21T04:18:02.691Z,30.22
2023-05-21T04:19:02.641Z,28.90
2023-05-21T04:20:02.592Z,29.13
2023-05-21T04:21:02.606Z,29.29
2023-05-21T04:22:02.602Z,31.05
2023-05-21T04:23:02.606Z,26.80
2023-05-21T04:24:02.614Z,28.75
2023-05-21T04:25:02.621Z,28.24
2023-05-21T04:26:02.626Z,28.68
2023-05-21T04:27:02.625Z,26.98
2023-05-21T04:28:02.650Z,28.40
2023-05-21T04:29:02.616Z,26.84
2023-05-21T04:30:02.615Z,28.40
2023-05-21T04:31:02.782Z,28.35
2023-05-21T04:32:02.622Z,26.98
2023-05-21T04:33:02.674Z,26.94
2023-05-21T04:34:02.647Z,27.52
2023-05-21T04:35:02.612Z,27.30
2023-05-21T04:36:02.621Z,27.44
2023-05-21T04:37:02.613Z,27.74
2023-05-21T04:38:04.215Z,27.65
2023-05-21T04:39:02.858Z,28.21
2023-05-21T04:40:02.860Z,27.18
2023-05-21T04:41:02.863Z,26.94
2023-05-21T04:42:02.852Z,25.00
2023-05-21T04:43:02.849Z,26.96
2023-05-21T04:44:02.881Z,28.56
2023-05-21T04:45:02.850Z,27.42
2023-05-21T04:46:02.849Z,28.68
2023-05-21T04:47:02.918Z,30.19
2023-05-21T04:48:02.994Z,26.41
2023-05-21T04:49:02.879Z,26.32
2023-05-21T04:50:02.862Z,29.84
2023-05-21T04:51:02.841Z,29.09
2023-05-21T04:52:02.831Z,28.50
2023-05-21T04:53:02.826Z,28.81
2023-05-21T04:54:02.827Z,29.25
2023-05-21T04:55:02.816Z,27.74
2023-05-21T04:56:02.816Z,26.94
2023-05-21T04:57:02.808Z,27.04
2023-05-21T04:58:02.811Z,26.25
2023-05-21T04:59:05.195Z,26.34
2023-05-21T05:00:02.823Z,32.05
2023-05-21T05:01:02.815Z,30.49
2023-05-21T05:02:02.786Z,28.64
2023-05-21T05:03:02.828Z,28.33
2023-05-21T05:04:02.900Z,27.26
2023-05-21T05:05:02.772Z,27.97
2023-05-21T05:06:02.751Z,26.67
2023-05-21T05:07:02.739Z,27.40
2023-05-21T05:08:02.732Z,27.42
2023-05-21T05:09:02.740Z,29.11
2023-05-21T05:10:02.727Z,27.41
2023-05-21T05:11:02.719Z,29.68
2023-05-21T05:12:02.714Z,28.23
2023-05-21T05:13:02.713Z,27.41
2023-05-21T05:14:02.691Z,27.05
2023-05-21T05:15:02.692Z,28.22
2023-05-21T05:16:02.841Z,26.79
2023-05-21T05:17:02.687Z,28.35
2023-05-21T05:18:02.707Z,27.81
2023-05-21T05:19:02.746Z,28.78
2023-05-21T05:20:02.677Z,29.61
2023-05-21T05:21:02.678Z,27.63
2023-05-21T05:22:02.668Z,26.65
2023-05-21T05:23:02.674Z,28.09
2023-05-21T05:24:02.669Z,27.64
2023-05-21T05:25:02.665Z,28.15
2023-05-21T05:26:02.675Z,27.60
2023-05-21T05:27:02.674Z,29.38
2023-05-21T05:28:02.666Z,28.65
2023-05-21T05:29:02.662Z,27.21
2023-05-21T05:30:02.722Z,29.22
2023-05-21T05:31:02.693Z,27.94
2023-05-21T05:32:02.693Z,28.65
2023-05-21T05:33:02.684Z,28.43
2023-05-21T05:34:02.660Z,27.09
2023-05-21T05:35:02.750Z,27.46
2023-05-21T05:36:02.664Z,26.79
2023-05-21T05:37:02.665Z,28.80
2023-05-21T05:38:02.658Z,30.90
2023-05-21T05:39:02.648Z,29.48
2023-05-21T05:40:02.645Z,29.60
2023-05-21T05:41:02.647Z,29.47
2023-05-21T05:42:02.668Z,29.26
2023-05-21T05:43:02.646Z,29.78
2023-05-21T05:44:02.644Z,30.41
2023-05-21T05:45:02.631Z,28.31
2023-05-21T05:46:02.665Z,29.63
2023-05-21T05:47:02.634Z,29.52
2023-05-21T05:48:02.664Z,30.61
2023-05-21T05:49:02.622Z,29.99
2023-05-21T05:50:02.617Z,30.30
2023-05-21T05:51:02.613Z,31.10
2023-05-21T05:52:02.627Z,29.53
2023-05-21T05:53:02.589Z,28.01
2023-05-21T05:54:02.582Z,28.18
2023-05-21T05:55:02.570Z,28.35
2023-05-21T05:56:02.569Z,29.10
2023-05-21T05:57:02.563Z,29.22
2023-05-21T05:58:02.541Z,30.95
2023-05-21T05:59:02.538Z,28.63
2023-05-21T06:00:02.537Z,30.23
2023-05-21T06:01:02.520Z,30.09
2023-05-21T06:02:02.542Z,28.61
2023-05-21T06:03:02.612Z,30.01
2023-05-21T06:04:02.514Z,30.49
2023-05-21T06:05:02.478Z,29.21
2023-05-21T06:06:02.506Z,29.56
2023-05-21T06:07:02.496Z,31.25
2023-05-21T06:08:02.448Z,28.78
2023-05-21T06:09:02.434Z,31.27
2023-05-21T06:10:02.426Z,29.58
2023-05-21T06:11:02.415Z,28.79
2023-05-21T06:12:02.416Z,28.63
2023-05-21T06:13:02.397Z,30.76
2023-05-21T06:14:02.404Z,30.04
2023-05-21T06:15:02.388Z,28.55
2023-05-21T06:16:02.401Z,29.93
2023-05-21T06:17:02.365Z,27.51
2023-05-21T06:18:02.412Z,26.89
2023-05-21T06:19:02.463Z,28.53
2023-05-21T06:20:02.365Z,27.97
2023-05-21T06:21:02.336Z,30.90
2023-05-21T06:22:02.334Z,29.14
2023-05-21T06:23:02.309Z,29.67
2023-05-21T06:24:02.301Z,27.07
2023-05-21T06:25:02.299Z,28.33
2023-05-21T06:26:02.292Z,27.82
2023-05-21T06:27:02.287Z,29.51
2023-05-21T06:28:02.271Z,27.76
2023-05-21T06:29:02.273Z,29.53
2023-05-21T06:30:02.259Z,28.85
2023-05-21T06:31:02.259Z,27.75
2023-05-21T06:32:02.248Z,27.27
2023-05-21T06:33:02.306Z,28.87
2023-05-21T06:34:02.459Z,28.79
2023-05-21T06:35:02.218Z,27.59
2023-05-21T06:36:02.251Z,25.68
2023-05-21T06:37:02.191Z,27.53
2023-05-21T06:38:02.190Z,28.45
2023-05-21T06:39:02.189Z,28.12
2023-05-21T06:40:02.182Z,27.43
2023-05-21T06:41:02.175Z,27.64
2023-05-21T06:42:02.191Z,27.77
2023-05-21T06:43:02.172Z,27.02
2023-05-21T06:44:02.177Z,26.01
2023-05-21T06:45:02.151Z,26.77
2023-05-21T06:46:02.226Z,26.77
2023-05-21T06:47:02.168Z,28.56
2023-05-21T06:48:02.168Z,27.08
2023-05-21T06:49:02.160Z,26.25
2023-05-21T06:50:02.214Z,27.37
2023-05-21T06:51:02.258Z,27.26
2023-05-21T06:52:02.332Z,27.46
2023-05-21T06:53:02.354Z,27.60
2023-05-21T06:54:02.389Z,26.13
2023-05-21T06:55:02.446Z,26.55
2023-05-21T06:56:02.489Z,28.37
2023-05-21T06:57:02.526Z,27.31
2023-05-21T06:58:02.563Z,27.80
2023-05-21T06:59:02.612Z,28.54
2023-05-21T07:00:02.669Z,26.50
2023-05-21T07:01:02.717Z,26.05
2023-05-21T07:02:04.669Z,26.08
2023-05-21T07:03:02.832Z,27.77
2023-05-21T07:04:02.719Z,28.42
2023-05-21T07:05:02.719Z,28.12
2023-05-21T07:06:02.716Z,26.63
2023-05-21T07:07:02.702Z,26.55
2023-05-21T07:08:02.731Z,26.59
2023-05-21T07:09:02.687Z,26.41
2023-05-21T07:10:02.682Z,26.18
2023-05-21T07:11:02.684Z,26.78
2023-05-21T07:12:02.678Z,25.42
2023-05-21T07:13:02.696Z,26.12
2023-05-21T07:14:02.683Z,27.18
2023-05-21T07:15:02.668Z,27.27
2023-05-21T07:16:02.686Z,26.15
2023-05-21T07:17:02.761Z,26.76
2023-05-21T07:18:02.694Z,26.54
2023-05-21T07:19:02.649Z,27.32
2023-05-21T07:20:02.622Z,25.98
2023-05-21T07:21:02.610Z,27.22
2023-05-21T07:22:02.600Z,27.81
2023-05-21T07:23:02.588Z,26.18
2023-05-21T07:24:02.609Z,27.25
2023-05-21T07:25:02.581Z,27.83
2023-05-21T07:26:02.572Z,26.52
2023-05-21T07:27:04.709Z,27.08
2023-05-21T07:28:03.621Z,27.40
2023-05-21T07:29:02.537Z,27.58
2023-05-21T07:30:02.519Z,28.05
2023-05-21T07:31:02.539Z,28.41
2023-05-21T07:32:03.429Z,28.08
2023-05-21T07:33:02.574Z,30.44
2023-05-21T07:34:02.478Z,30.08
2023-05-21T07:35:02.482Z,29.26
2023-05-21T07:36:02.481Z,28.53
2023-05-21T07:37:02.458Z,28.10
2023-05-21T07:38:02.496Z,29.33
2023-05-21T07:39:02.451Z,27.08
2023-05-21T07:40:02.446Z,26.98
2023-05-21T07:41:02.425Z,27.24
2023-05-21T07:42:02.448Z,28.07
2023-05-21T07:43:02.490Z,25.80
2023-05-21T07:44:02.539Z,27.41
2023-05-21T07:45:02.600Z,26.54
2023-05-21T07:46:02.635Z,26.05
2023-05-21T07:47:02.671Z,25.00
2023-05-21T07:48:02.812Z,26.94
2023-05-21T07:49:02.791Z,27.88
2023-05-21T07:50:02.867Z,25.63
2023-05-21T07:51:02.916Z,26.90
2023-05-21T07:52:02.971Z,27.20
2023-05-21T07:53:03.096Z,26.97
2023-05-21T07:54:03.095Z,26.44
2023-05-21T07:55:03.144Z,28.18
2023-05-21T07:56:03.318Z,27.45
2023-05-21T07:57:03.248Z,26.54
2023-05-21T07:58:03.325Z,27.57
2023-05-21T07:59:03.363Z,27.61
2023-05-21T08:00:03.417Z,25.40
2023-05-21T08:01:03.528Z,27.73
2023-05-21T08:02:03.525Z,26.75
2023-05-21T08:03:03.690Z,27.89
2023-05-21T08:04:03.886Z,26.41
2023-05-21T08:05:03.819Z,26.66
2023-05-21T08:06:03.741Z,27.47
2023-05-21T08:07:03.772Z,26.68
2023-05-21T08:08:03.818Z,27.71
2023-05-21T08:09:03.865Z,26.97
2023-05-21T08:10:03.912Z,28.30
2023-05-21T08:11:03.960Z,26.74
2023-05-21T08:12:04.052Z,27.14
2023-05-21T08:13:04.066Z,27.17
2023-05-21T08:14:04.122Z,28.10
2023-05-21T08:15:04.177Z,27.25
2023-05-21T08:16:04.254Z,28.01
2023-05-21T08:17:04.269Z,28.41
2023-05-21T08:18:04.392Z,28.60
2023-05-21T08:19:04.417Z,27.63
2023-05-21T08:20:04.430Z,28.96
2023-05-21T08:21:04.481Z,27.61
2023-05-21T08:22:04.539Z,27.71
2023-05-21T08:23:04.581Z,26.55
2023-05-21T08:24:04.638Z,27.89
2023-05-21T08:25:04.680Z,26.14
2023-05-21T08:26:04.738Z,28.02
2023-05-21T08:27:04.783Z,26.85
2023-05-21T08:28:04.852Z,26.47
2023-05-21T08:29:04.876Z,28.72
2023-05-21T08:30:04.915Z,28.98
2023-05-21T08:31:04.978Z,27.00
2023-05-21T08:32:05.048Z,28.03
2023-05-21T08:33:05.097Z,26.61
2023-05-21T08:34:05.088Z,27.17
2023-05-21T08:35:05.130Z,27.15
2023-05-21T08:36:05.188Z,27.20
2023-05-21T08:37:05.232Z,28.46
2023-05-21T08:38:05.303Z,28.94
2023-05-21T08:39:05.959Z,27.77
2023-05-21T08:40:05.374Z,28.01
2023-05-21T08:41:05.406Z,28.58
2023-05-21T08:42:05.457Z,27.26
2023-05-21T08:43:05.509Z,29.14
2023-05-21T08:44:05.667Z,28.83
2023-05-21T08:45:05.579Z,27.73
2023-05-21T08:46:05.686Z,28.41
2023-05-21T08:47:05.664Z,27.18
2023-05-21T08:48:05.729Z,26.86
2023-05-21T08:49:05.754Z,29.22
2023-05-21T08:50:05.787Z,28.53
2023-05-21T08:51:05.844Z,28.16
2023-05-21T08:52:05.871Z,29.08
2023-05-21T08:53:15.880Z,28.93
2023-05-21T08:54:05.911Z,29.19
2023-05-21T08:55:05.901Z,30.00
2023-05-21T08:56:05.915Z,30.37
2023-05-21T08:57:05.868Z,31.80
2023-05-21T08:58:05.852Z,29.24
2023-05-21T08:59:05.831Z,32.21
2023-05-21T09:00:05.849Z,30.42
2023-05-21T09:01:05.809Z,29.46
2023-05-21T09:02:05.780Z,29.16
2023-05-21T09:03:05.785Z,30.54
2023-05-21T09:04:19.745Z,27.56
2023-05-21T09:05:05.738Z,27.94
2023-05-21T09:06:05.710Z,28.46
2023-05-21T09:07:05.702Z,29.66
2023-05-21T09:08:05.683Z,29.61
2023-05-21T09:09:05.658Z,31.27
2023-05-21T09:10:04.636Z,29.51
2023-05-21T09:11:05.637Z,31.08
2023-05-21T09:12:05.596Z,30.03
2023-05-21T09:13:05.579Z,31.90
2023-05-21T09:14:05.565Z,30.59
2023-05-21T09:15:05.538Z,30.86
2023-05-21T09:16:05.554Z,29.55
2023-05-21T09:17:05.551Z,29.46
2023-05-21T09:18:05.557Z,30.98
2023-05-21T09:19:05.507Z,29.98
2023-05-21T09:20:05.532Z,29.94
2023-05-21T09:21:05.561Z,30.54
2023-05-21T09:22:05.605Z,29.40
2023-05-21T09:23:05.651Z,31.26
2023-05-21T09:24:05.697Z,30.64
2023-05-21T09:25:05.743Z,31.84
2023-05-21T09:26:05.798Z,32.71
2023-05-21T09:27:05.828Z,31.39
2023-05-21T09:28:05.883Z,29.94
2023-05-21T09:29:05.909Z,30.25
2023-05-21T09:30:05.944Z,31.59
2023-05-21T09:31:06.013Z,32.33
2023-05-21T09:32:06.047Z,29.77
2023-05-21T09:33:06.072Z,30.88
2023-05-21T09:34:06.091Z,30.65
2023-05-21T09:35:06.124Z,30.58
2023-05-21T09:36:06.167Z,31.25
2023-05-21T09:37:08.505Z,30.85
2023-05-21T09:38:06.177Z,31.17
2023-05-21T09:39:06.155Z,31.82
2023-05-21T09:40:06.138Z,32.13
2023-05-21T09:41:06.132Z,33.07
2023-05-21T09:42:06.117Z,33.05
2023-05-21T09:43:06.113Z,33.12
2023-05-21T09:44:06.091Z,33.59
2023-05-21T09:45:06.096Z,31.20
2023-05-21T09:46:06.095Z,31.32
2023-05-21T09:47:06.023Z,30.07
2023-05-21T09:48:06.073Z,31.67
2023-05-21T09:49:06.018Z,31.78
2023-05-21T09:50:06.029Z,32.07
2023-05-21T09:51:05.965Z,32.28
2023-05-21T09:52:05.957Z,29.83
2023-05-21T09:53:05.946Z,29.80
2023-05-21T09:54:05.940Z,32.20
2023-05-21T09:55:05.935Z,32.30
2023-05-21T09:56:05.911Z,32.00
2023-05-21T09:57:05.889Z,32.29
2023-05-21T09:58:05.869Z,32.84
2023-05-21T09:59:05.851Z,32.56
2023-05-21T10:00:05.845Z,31.38
2023-05-21T10:01:05.823Z,30.64
2023-05-21T10:02:05.842Z,32.22
2023-05-21T10:03:05.845Z,32.01
2023-05-21T10:04:05.861Z,32.13
2023-05-21T10:05:05.781Z,32.33
2023-05-21T10:06:05.759Z,34.11
2023-05-21T10:07:05.767Z,32.70
2023-05-21T10:08:05.752Z,32.51
2023-05-21T10:09:06.080Z,32.63
2023-05-21T10:10:05.824Z,32.36
2023-05-21T10:11:05.888Z,33.03
2023-05-21T10:12:05.895Z,32.64
2023-05-21T10:13:05.924Z,33.94
2023-05-21T10:14:05.983Z,33.13
2023-05-21T10:15:06.004Z,34.48
2023-05-21T10:16:06.142Z,31.78
2023-05-21T10:17:06.089Z,34.71
2023-05-21T10:18:06.226Z,33.69
2023-05-21T10:19:06.226Z,34.86
2023-05-21T10:20:06.226Z,34.44
2023-05-21T10:21:06.243Z,36.06
2023-05-21T10:22:06.282Z,33.86
2023-05-21T10:23:06.349Z,34.30
2023-05-21T10:24:06.366Z,32.36
2023-05-21T10:25:06.401Z,33.62
2023-05-21T10:26:06.435Z,33.44
2023-05-21T10:27:06.480Z,32.76
2023-05-21T10:28:06.515Z,35.35
2023-05-21T10:29:06.557Z,33.81
2023-05-21T10:30:06.604Z,34.47
2023-05-21T10:31:06.629Z,35.18
2023-05-21T10:32:06.713Z,35.83
2023-05-21T10:33:06.727Z,34.76
2023-05-21T10:34:06.754Z,33.31
2023-05-21T10:35:06.807Z,35.19
2023-05-21T10:36:06.875Z,33.96
2023-05-21T10:37:06.870Z,34.97
2023-05-21T10:38:06.910Z,35.54
2023-05-21T10:39:06.944Z,34.56
2023-05-21T10:40:06.986Z,33.34
2023-05-21T10:41:07.033Z,35.13
2023-05-21T10:42:07.053Z,34.92
2023-05-21T10:43:07.088Z,35.21
2023-05-21T10:44:07.150Z,35.98
2023-05-21T10:45:07.162Z,33.60
2023-05-21T10:46:07.298Z,33.92
2023-05-21T10:47:07.227Z,36.81
2023-05-21T10:48:07.285Z,32.89
2023-05-21T10:49:07.310Z,37.80
2023-05-21T10:50:07.329Z,35.91
2023-05-21T10:51:07.364Z,37.36
2023-05-21T10:52:07.426Z,35.77
2023-05-21T10:53:09.939Z,35.12
2023-05-21T10:54:07.405Z,35.29
2023-05-21T10:55:07.410Z,35.73
2023-05-21T10:56:07.369Z,35.62
2023-05-21T10:57:07.347Z,36.12
2023-05-21T10:58:07.327Z,34.71
2023-05-21T10:59:07.309Z,35.75
2023-05-21T11:00:07.320Z,36.37
2023-05-21T11:01:07.306Z,37.24
2023-05-21T11:02:07.273Z,35.97
2023-05-21T11:03:07.324Z,37.50
2023-05-21T11:04:07.226Z,36.83
2023-05-21T11:05:07.225Z,34.36
2023-05-21T11:06:07.186Z,35.16
2023-05-21T11:07:07.174Z,38.23
2023-05-21T11:08:07.181Z,34.20
2023-05-21T11:09:07.138Z,36.61
2023-05-21T11:10:07.121Z,36.93
2023-05-21T11:11:07.126Z,36.17
2023-05-21T11:12:07.113Z,35.44
2023-05-21T11:13:07.105Z,37.07
2023-05-21T11:14:07.081Z,37.00
2023-05-21T11:15:07.073Z,38.44
2023-05-21T11:16:07.056Z,37.49
2023-05-21T11:17:07.184Z,36.41
2023-05-21T11:18:08.078Z,37.47
2023-05-21T11:19:07.209Z,36.80
2023-05-21T11:20:07.201Z,38.57
2023-05-21T11:21:07.226Z,38.23
2023-05-21T11:22:07.296Z,36.91
2023-05-21T11:23:07.296Z,38.21
2023-05-21T11:24:07.356Z,37.14
2023-05-21T11:25:07.361Z,35.06
2023-05-21T11:26:07.434Z,36.54
2023-05-21T11:27:07.423Z,38.33
2023-05-21T11:28:07.471Z,38.00
2023-05-21T11:29:07.508Z,35.27
2023-05-21T11:30:07.561Z,36.27
2023-05-21T11:31:07.617Z,35.98
2023-05-21T11:32:07.615Z,37.43
2023-05-21T11:33:07.867Z,36.56
2023-05-21T11:34:07.679Z,35.43
2023-05-21T11:35:07.745Z,39.26
2023-05-21T11:36:07.780Z,36.15
2023-05-21T11:37:07.800Z,37.25
2023-05-21T11:38:07.817Z,39.56
2023-05-21T11:39:07.852Z,38.39
2023-05-21T11:40:07.913Z,37.01
2023-05-21T11:41:07.931Z,36.27
2023-05-21T11:42:07.952Z,38.09
2023-05-21T11:43:07.989Z,37.89
2023-05-21T11:44:08.021Z,38.12
2023-05-21T11:45:08.061Z,37.85
2023-05-21T11:46:08.117Z,38.81
2023-05-21T11:47:08.116Z,36.57
2023-05-21T11:48:08.193Z,39.33
2023-05-21T11:49:08.187Z,39.41
2023-05-21T11:50:08.226Z,38.72
2023-05-21T11:51:08.257Z,39.68
2023-05-21T11:52:08.299Z,38.44
2023-05-21T11:53:08.325Z,39.20
2023-05-21T11:54:08.364Z,39.78
2023-05-21T11:55:08.409Z,39.36
2023-05-21T11:56:08.468Z,41.05
2023-05-21T11:57:08.488Z,41.29
2023-05-21T11:58:08.504Z,40.08
2023-05-21T11:59:08.541Z,40.61
2023-05-21T12:00:08.576Z,39.94
2023-05-21T12:01:08.612Z,40.64
2023-05-21T12:02:08.640Z,40.40
2023-05-21T12:03:08.728Z,41.53
2023-05-21T12:04:08.846Z,41.76
2023-05-21T12:05:09.042Z,41.13
2023-05-21T12:06:08.807Z,39.57
2023-05-21T12:07:08.802Z,41.76
2023-05-21T12:08:08.832Z,42.00
2023-05-21T12:09:08.872Z,42.45
2023-05-21T12:10:08.911Z,40.41
2023-05-21T12:11:08.955Z,42.80
2023-05-21T12:12:09.002Z,43.98
2023-05-21T12:13:09.014Z,41.39
2023-05-21T12:14:09.095Z,41.20
2023-05-21T12:15:09.083Z,40.68
2023-05-21T12:16:09.123Z,41.36
2023-05-21T12:17:09.140Z,41.76
2023-05-21T12:18:09.200Z,41.29
2023-05-21T12:19:09.260Z,41.29
2023-05-21T12:20:09.251Z,41.46
2023-05-21T12:21:10.568Z,39.90
2023-05-21T12:22:09.267Z,46.59
2023-05-21T12:23:09.252Z,42.19
2023-05-21T12:24:09.247Z,42.96
2023-05-21T12:25:09.215Z,40.94
2023-05-21T12:26:09.201Z,43.67
2023-05-21T12:27:09.181Z,41.86
2023-05-21T12:28:09.186Z,39.91
2023-05-21T12:29:09.146Z,41.46
2023-05-21T12:30:09.130Z,41.83
2023-05-21T12:31:09.121Z,43.54
2023-05-21T12:32:09.206Z,42.17
2023-05-21T12:33:09.144Z,44.20
2023-05-21T12:34:09.071Z,42.01
2023-05-21T12:35:09.076Z,43.69
2023-05-21T12:36:09.051Z,41.89
2023-05-21T12:37:09.044Z,43.58
2023-05-21T12:38:09.020Z,41.26
2023-05-21T12:39:11.190Z,42.04
2023-05-21T12:40:09.000Z,48.03
2023-05-21T12:41:08.970Z,46.31
2023-05-21T12:42:08.970Z,44.95
2023-05-21T12:43:08.948Z,44.90
2023-05-21T12:44:08.968Z,43.95
2023-05-21T12:45:08.927Z,42.06
2023-05-21T12:46:08.977Z,44.14
2023-05-21T12:47:08.910Z,42.18
2023-05-21T12:48:09.168Z,44.21
2023-05-21T12:49:08.911Z,43.87
2023-05-21T12:50:08.876Z,43.98
2023-05-21T12:51:08.862Z,43.86
2023-05-21T12:52:08.851Z,41.59